createdAt,value
2023-02-08T00:03:29.017Z,102816.56
2023-02-08T00:08:31.875Z,102813.50
2023-02-08T00:13:35.891Z,102818.88
2023-02-08T00:18:38.589Z,102815.25
2023-02-08T00:23:41.551Z,102813.53
2023-02-08T00:28:45.951Z,102800.25
2023-02-08T00:33:48.627Z,102794.84
2023-02-08T00:38:51.284Z,102794.31
2023-02-08T00:43:55.285Z,102788.13
2023-02-08T00:48:57.959Z,102781.34
2023-02-08T00:54:00.618Z,102782.31
2023-02-08T00:59:04.723Z,102785.13
2023-02-08T01:04:08.245Z,102774.97
2023-02-08T01:09:10.906Z,102775.44
2023-02-08T01:14:14.962Z,102777.97
2023-02-08T01:19:17.627Z,102763.88
2023-02-08T01:24:20.306Z,102761.41
2023-02-08T01:29:24.290Z,102764.19
2023-02-08T01:34:26.955Z,102764.72
2023-02-08T01:39:29.677Z,102759.16
2023-02-08T01:45:14.910Z,102756.59
2023-02-08T01:50:21.910Z,102757.31
2023-02-08T01:55:27.197Z,102759.09
2023-02-08T02:00:30.274Z,102753.91
2023-02-08T02:05:41.181Z,102753.13
2023-02-08T02:10:44.248Z,102754.78
2023-02-08T02:15:47.501Z,102757.09
2023-02-08T02:21:05.123Z,102752.53
2023-02-08T02:26:42.276Z,102756.75
2023-02-08T02:31:57.298Z,102751.59
2023-02-08T02:37:04.530Z,102755.63
2023-02-08T02:42:29.064Z,102758.94
2023-02-08T02:47:38.244Z,102760.56
2023-02-08T02:52:43.978Z,102757.34
2023-02-08T02:57:48.552Z,102754.03
2023-02-08T03:02:52.700Z,102736.09
2023-02-08T03:08:11.773Z,102737.16
2023-02-08T03:13:24.996Z,102732.22
2023-02-08T03:18:34.817Z,102724.56
2023-02-08T03:23:41.818Z,102722.34
2023-02-08T03:28:51.347Z,102726.13
2023-02-08T03:33:59.307Z,102722.25
2023-02-08T03:39:04.596Z,102713.84
2023-02-08T03:44:11.455Z,102717.69
2023-02-08T03:49:19.787Z,102718.53
2023-02-08T03:54:25.725Z,102724.56
2023-02-08T03:59:31.861Z,102726.00
2023-02-08T04:04:38.918Z,102716.75
2023-02-08T04:09:41.692Z,102725.53
2023-02-08T04:14:44.432Z,102718.84
2023-02-08T04:19:48.571Z,102717.53
2023-02-08T04:24:51.329Z,102710.19
2023-02-08T04:29:54.606Z,102712.22
2023-02-08T04:34:58.707Z,102714.63
2023-02-08T04:40:01.489Z,102715.50
2023-02-08T04:45:04.630Z,102714.94
2023-02-08T04:50:09.267Z,102717.63
2023-02-08T04:55:12.034Z,102717.78
2023-02-08T05:00:15.481Z,102710.94
2023-02-08T05:05:19.956Z,102717.75
2023-02-08T05:10:22.864Z,102722.56
2023-02-08T05:15:25.651Z,102713.75
2023-02-08T05:20:30.625Z,102718.06
2023-02-08T05:25:33.337Z,102728.41
2023-02-08T05:30:36.083Z,102726.75
2023-02-08T05:35:40.234Z,102735.06
2023-02-08T05:40:43.114Z,102729.94
2023-02-08T05:45:45.909Z,102742.09
2023-02-08T05:50:49.989Z,102734.69
2023-02-08T05:55:52.737Z,102733.44
2023-02-08T06:00:55.543Z,102734.75
2023-02-08T06:06:01.610Z,102733.41
2023-02-08T06:11:04.387Z,102731.47
2023-02-08T06:16:08.067Z,102741.59
2023-02-08T06:21:12.828Z,102734.50
2023-02-08T06:26:15.541Z,102729.84
2023-02-08T06:31:18.365Z,102733.25
2023-02-08T06:36:22.612Z,102739.19
2023-02-08T06:41:25.489Z,102736.00
2023-02-08T06:46:28.224Z,102736.19
2023-02-08T06:51:32.329Z,102736.19
2023-02-08T06:56:35.105Z,102744.34
2023-02-08T07:01:37.943Z,102747.34
2023-02-08T07:06:42.169Z,102745.50
2023-02-08T07:11:45.327Z,102745.59
2023-02-08T07:16:48.143Z,102739.19
2023-02-08T07:21:52.299Z,102741.13
2023-02-08T07:26:55.051Z,102739.38
2023-02-08T07:31:58.681Z,102738.03
2023-02-08T07:37:02.850Z,102735.94
2023-02-08T07:42:06.884Z,102737.91
2023-02-08T07:47:17.095Z,102742.63
2023-02-08T07:52:21.257Z,102752.00
2023-02-08T07:57:24.035Z,102746.72
2023-02-08T08:02:26.808Z,102730.19
2023-02-08T08:07:30.985Z,102716.22
2023-02-08T08:12:33.774Z,102717.22
2023-02-08T08:17:36.570Z,102707.09
2023-02-08T08:22:40.695Z,102715.09
2023-02-08T08:27:43.616Z,102710.28
2023-02-08T08:32:46.345Z,102719.28
2023-02-08T08:37:50.459Z,102727.53
2023-02-08T08:42:53.192Z,102727.53
2023-02-08T08:47:55.966Z,102726.53
2023-02-08T08:53:00.133Z,102727.16
2023-02-08T08:58:02.925Z,102731.91
2023-02-08T09:03:05.701Z,102722.47
2023-02-08T09:08:09.909Z,102729.91
2023-02-08T09:13:19.180Z,102725.50
2023-02-08T09:18:22.090Z,102732.16
2023-02-08T09:23:26.214Z,102725.53
2023-02-08T09:28:28.983Z,102734.28
2023-02-08T09:33:31.786Z,102726.88
2023-02-08T09:38:36.078Z,102730.06
2023-02-08T09:43:44.584Z,102722.06
2023-02-08T09:48:48.522Z,102726.28
2023-02-08T09:53:57.025Z,102728.09
2023-02-08T09:59:00.388Z,102730.22
2023-02-08T10:04:07.511Z,102739.03
2023-02-08T10:09:15.166Z,102738.41
2023-02-08T10:14:41.228Z,102744.28
2023-02-08T10:19:47.590Z,102754.97
2023-02-08T10:25:08.201Z,102747.81
2023-02-08T10:30:26.181Z,102749.28
2023-02-08T10:35:32.136Z,102739.97
2023-02-08T10:40:39.551Z,102723.06
2023-02-08T10:45:49.815Z,102728.09
2023-02-08T10:50:52.542Z,102722.75
2023-02-08T10:55:55.334Z,102733.16
2023-02-08T11:00:59.964Z,102724.44
2023-02-08T11:06:03.191Z,102708.03
2023-02-08T11:11:09.089Z,102713.16
2023-02-08T11:16:14.662Z,102701.28
2023-02-08T11:21:24.703Z,102700.47
2023-02-08T11:26:33.791Z,102687.53
2023-02-08T11:31:37.856Z,102685.97
2023-02-08T11:36:47.312Z,102685.16
2023-02-08T11:41:52.062Z,102687.28
2023-02-08T11:46:58.177Z,102688.13
2023-02-08T11:52:00.937Z,102679.03
2023-02-08T11:57:10.391Z,102667.63
2023-02-08T12:02:39.379Z,102666.81
2023-02-08T12:07:53.922Z,102668.13
2023-02-08T12:13:06.566Z,102673.19
2023-02-08T12:18:25.015Z,102660.97
2023-02-08T12:23:47.449Z,102660.69
2023-02-08T12:29:03.014Z,102655.47
2023-02-08T12:34:12.104Z,102652.03
2023-02-08T12:39:50.781Z,102639.38
2023-02-08T12:45:09.294Z,102632.41
2023-02-08T12:50:19.828Z,102625.09
2023-02-08T12:55:25.958Z,102624.56
2023-02-08T13:00:31.654Z,102616.81
2023-02-08T13:05:40.082Z,102618.16
2023-02-08T13:10:44.879Z,102604.16
2023-02-08T13:15:52.869Z,102599.06
2023-02-08T13:20:59.537Z,102593.84
2023-02-08T13:26:07.244Z,102584.44
2023-02-08T13:31:14.816Z,102570.06
2023-02-08T13:36:25.766Z,102564.69
2023-02-08T13:41:29.913Z,102549.47
2023-02-08T13:46:38.950Z,102541.97
2023-02-08T13:52:03.784Z,102531.66
2023-02-08T13:57:45.260Z,102523.38
2023-02-08T14:03:00.259Z,102515.84
2023-02-08T14:08:05.226Z,102515.06
2023-02-08T14:13:19.453Z,102514.59
2023-02-08T14:18:27.143Z,102510.44
2023-02-08T14:23:33.003Z,102501.44
2023-02-08T14:28:38.436Z,102484.38
2023-02-08T14:33:42.928Z,102487.47
2023-02-08T14:39:05.555Z,102476.41
2023-02-08T14:44:53.699Z,102485.44
2023-02-08T14:50:00.082Z,102472.41
2023-02-08T14:55:08.525Z,102470.88
2023-02-08T15:00:18.610Z,102469.94
2023-02-08T15:05:23.492Z,102465.34
2023-02-08T15:10:30.240Z,102448.44
2023-02-08T15:15:35.285Z,102437.41
2023-02-08T15:20:38.010Z,102434.66
2023-02-08T15:25:43.949Z,102435.25
2023-02-08T15:30:47.238Z,102433.56
2023-02-08T15:35:57.374Z,102429.13
2023-02-08T15:41:06.692Z,102426.06
2023-02-08T15:46:18.455Z,102415.91
2023-02-08T15:51:24.171Z,102421.31
2023-02-08T15:56:37.142Z,102415.03
2023-02-08T16:01:41.251Z,102417.31
2023-02-08T16:06:48.875Z,102414.34
2023-02-08T16:11:53.660Z,102404.22
2023-02-08T16:16:57.945Z,102394.69
2023-02-08T16:22:25.711Z,102389.91
2023-02-08T16:27:31.579Z,102398.84
2023-02-08T16:32:38.816Z,102393.59
2023-02-08T16:37:41.626Z,102385.63
2023-02-08T16:42:45.703Z,102386.16
2023-02-08T16:47:51.335Z,102384.88
2023-02-08T16:52:56.094Z,102381.50
2023-02-08T16:58:00.675Z,102379.91
2023-02-08T17:03:03.430Z,102380.56
2023-02-08T17:08:07.868Z,102374.38
2023-02-08T17:13:20.451Z,102373.56
2023-02-08T17:18:25.120Z,102354.22
2023-02-08T17:23:27.921Z,102352.16
2023-02-08T17:28:35.628Z,102348.91
2023-02-08T17:33:40.110Z,102342.31
2023-02-08T17:38:44.293Z,102341.63
2023-02-08T17:43:51.668Z,102342.84
2023-02-08T17:48:54.868Z,102341.19
2023-02-08T17:53:57.554Z,102332.63
2023-02-08T17:59:03.645Z,102327.03
2023-02-08T18:04:06.618Z,102328.94
2023-02-08T18:09:09.728Z,102322.03
2023-02-08T18:14:14.256Z,102325.28
2023-02-08T18:19:17.036Z,102319.09
2023-02-08T18:24:19.785Z,102320.44
2023-02-08T18:29:24.572Z,102313.56
2023-02-08T18:34:27.359Z,102305.78
2023-02-08T18:39:30.137Z,102306.34
2023-02-08T18:44:35.267Z,102302.66
2023-02-08T18:49:40.726Z,102296.81
2023-02-08T18:54:43.581Z,102301.41
2023-02-08T18:59:48.089Z,102282.31
2023-02-08T19:04:50.896Z,102283.88
2023-02-08T19:09:54.078Z,102283.44
2023-02-08T19:14:58.456Z,102272.84
2023-02-08T19:20:01.176Z,102267.28
2023-02-08T19:25:03.935Z,102272.69
2023-02-08T19:30:09.868Z,102272.16
2023-02-08T19:35:12.615Z,102265.97
2023-02-08T19:40:16.077Z,102265.78
2023-02-08T19:45:20.257Z,102266.78
2023-02-08T19:50:23.102Z,102266.19
2023-02-08T19:55:25.804Z,102266.78
2023-02-08T20:00:29.829Z,102263.59
2023-02-08T20:05:36.596Z,102260.19
2023-02-08T20:10:39.676Z,102255.94
2023-02-08T20:15:46.055Z,102269.69
2023-02-08T20:21:00.277Z,102281.72
2023-02-08T20:26:08.335Z,102264.63
2023-02-08T20:31:14.066Z,102275.97
2023-02-08T20:36:17.640Z,102278.41
2023-02-08T20:41:21.487Z,102287.72
2023-02-08T20:46:27.152Z,102285.06
2023-02-08T20:51:30.688Z,102290.38
2023-02-08T20:56:34.967Z,102286.59
2023-02-08T21:01:39.320Z,102284.66
2023-02-08T21:06:44.623Z,102286.09
2023-02-08T21:11:48.276Z,102291.41
2023-02-08T21:16:55.998Z,102285.53
2023-02-08T21:22:00.373Z,102284.09
2023-02-08T21:27:03.549Z,102286.09
2023-02-08T21:32:10.244Z,102290.84
2023-02-08T21:37:13.032Z,102292.22
2023-02-08T21:42:15.810Z,102284.88
2023-02-08T21:47:19.906Z,102273.66
2023-02-08T21:52:40.120Z,102273.25
2023-02-08T21:57:42.936Z,102269.47
2023-02-08T22:02:47.053Z,102263.72
2023-02-08T22:07:51.951Z,102270.00
2023-02-08T22:12:55.321Z,102272.47
2023-02-08T22:18:01.182Z,102276.44
2023-02-08T22:23:03.836Z,102267.31
2023-02-08T22:28:08.220Z,102267.66
2023-02-08T22:33:12.411Z,102279.59
2023-02-08T22:38:15.230Z,102280.72
2023-02-08T22:43:18.303Z,102277.03
2023-02-08T22:48:22.395Z,102281.41
2023-02-08T22:53:25.165Z,102271.78
2023-02-08T22:58:28.132Z,102283.09
2023-02-08T23:03:33.016Z,102277.38
2023-02-08T23:08:36.636Z,102274.59
2023-02-08T23:13:39.461Z,102265.75
2023-02-08T23:18:44.578Z,102250.63
2023-02-08T23:23:48.587Z,102258.38
2023-02-08T23:28:52.238Z,102253.22
2023-02-08T23:33:56.355Z,102239.94
2023-02-08T23:38:59.224Z,102248.78
2023-02-08T23:44:01.949Z,102239.94
2023-02-08T23:49:06.011Z,102229.22
2023-02-08T23:54:09.678Z,102233.13
2023-02-08T23:59:12.482Z,102232.03
